Time;durP1;ratioP1;P1;durP2;ratioP2;P2;SDS_P1;SDS_P2;PMS_P1;PMS_P2;Temp;Humidity;BMP_temperature;BMP_pressure;BME280_temperature;BME280_humidity;BME280_pressure;Samples;Min_cycle;Max_cycle;Signal;HPM_P1;HPM_P2
2022/07/05 00:00:05;;;;;;;1.90;1.70;;;;;;;18.72;65.79;101081.19;5053274;28;20205;-74
2022/07/05 00:02:31;;;;;;;1.30;1.20;;;;;;;18.70;66.44;101054.78;5052972;28;20263;-74
2022/07/05 00:04:58;;;;;;;1.93;1.50;;;;;;;18.67;66.33;101041.69;5052901;28;20248;-74
2022/07/05 00:07:24;;;;;;;1.63;1.40;;;;;;;18.51;67.18;101036.19;5052936;28;20225;-74
2022/07/05 00:09:53;;;;;;;2.10;1.30;;;;;;;18.51;66.38;101038.00;5052876;28;20266;-74
2022/07/05 00:12:23;;;;;;;3.97;1.60;;;;;;;18.42;66.42;101045.38;5053054;28;20266;-74
2022/07/05 00:14:50;;;;;;;2.13;1.53;;;;;;;18.38;66.39;101042.94;5052753;28;20271;-74
2022/07/05 00:17:16;;;;;;;1.40;1.20;;;;;;;18.33;66.61;101051.06;5050906;28;20232;-73
2022/07/05 00:19:43;;;;;;;2.13;1.70;;;;;;;18.34;66.49;101046.66;5045662;28;20255;-74
2022/07/05 00:22:10;;;;;;;4.63;1.67;;;;;;;18.30;66.60;101045.06;5052471;28;20611;-74
2022/07/05 00:24:36;;;;;;;1.90;1.60;;;;;;;18.16;66.96;101051.75;5052535;28;20757;-74
2022/07/05 00:27:03;;;;;;;2.03;1.30;;;;;;;18.18;66.43;101055.19;5052617;28;20233;-74
2022/07/05 00:29:31;;;;;;;1.90;1.20;;;;;;;18.19;66.67;101054.25;5052288;28;20204;-74
2022/07/05 00:31:58;;;;;;;4.00;1.63;;;;;;;18.11;67.34;101039.66;5052404;28;20214;-74
2022/07/05 00:34:25;;;;;;;1.57;1.30;;;;;;;18.12;67.21;101036.09;5052311;28;20752;-74
2022/07/05 00:36:51;;;;;;;2.90;1.53;;;;;;;18.08;66.97;101045.03;5052134;28;20621;-74
2022/07/05 00:39:18;;;;;;;2.50;1.80;;;;;;;18.11;67.19;101053.72;5051842;28;20687;-74
2022/07/05 00:41:44;;;;;;;3.27;1.57;;;;;;;18.03;67.51;101048.72;5052272;28;20675;-74
2022/07/05 00:44:13;;;;;;;2.63;1.47;;;;;;;17.96;67.81;101039.34;5051950;28;20552;-73
2022/07/05 00:46:44;;;;;;;1.77;1.40;;;;;;;17.88;68.08;101033.53;5051888;28;20815;-74
2022/07/05 00:49:10;;;;;;;3.33;1.90;;;;;;;17.87;68.29;101034.44;5043561;28;20205;-73
2022/07/05 00:51:39;;;;;;;4.87;1.50;;;;;;;17.85;68.31;101033.63;5052276;28;20255;-74
2022/07/05 00:54:07;;;;;;;1.97;1.77;;;;;;;17.91;67.75;101041.31;5051946;28;20232;-74
2022/07/05 00:56:34;;;;;;;3.17;1.50;;;;;;;17.85;68.01;101054.75;5052162;28;20209;-74
2022/07/05 00:59:00;;;;;;;2.00;1.73;;;;;;;17.80;68.44;101040.84;5052053;28;20263;-73
2022/07/05 01:01:28;;;;;;;2.67;1.30;;;;;;;17.79;68.62;101037.34;5052112;28;20208;-73
2022/07/05 01:03:57;;;;;;;1.47;1.30;;;;;;;17.65;69.27;101026.47;5051906;28;20216;-73
2022/07/05 01:06:24;;;;;;;1.80;1.30;;;;;;;17.62;69.55;101005.44;5052087;28;20693;-73
2022/07/05 01:08:50;;;;;;;2.20;1.53;;;;;;;17.60;69.69;100992.34;5051873;28;20233;-73
2022/07/05 01:11:17;;;;;;;2.70;1.57;;;;;;;17.57;69.50;100997.72;5051876;28;20208;-73
2022/07/05 01:13:43;;;;;;;2.70;1.57;;;;;;;17.56;69.16;101003.94;5051754;28;20266;-73
2022/07/05 01:16:10;;;;;;;2.37;1.50;;;;;;;17.61;69.01;101012.53;5052063;28;20205;-73
2022/07/05 01:18:37;;;;;;;2.00;1.40;;;;;;;17.59;69.17;100997.66;5042835;28;20639;-73
2022/07/05 01:21:06;;;;;;;2.27;1.50;;;;;;;17.48;69.82;100990.16;5051819;28;20731;-73
2022/07/05 01:23:34;;;;;;;2.53;1.50;;;;;;;17.41;70.06;100978.13;5052129;28;20212;-73
2022/07/05 01:26:02;;;;;;;2.67;1.50;;;;;;;17.44;69.91;100983.28;5051642;28;20732;-73
2022/07/05 01:28:29;;;;;;;1.50;1.40;;;;;;;17.44;69.89;100980.63;5051277;28;20236;-73
2022/07/05 01:30:55;;;;;;;1.73;1.23;;;;;;;17.45;69.79;100988.50;5052980;28;20621;-73
2022/07/05 01:33:27;;;;;;;3.67;1.77;;;;;;;17.40;69.92;100979.91;5055732;28;20216;-73
2022/07/05 01:35:54;;;;;;;2.20;1.70;;;;;;;17.38;70.39;100981.75;5056046;28;20258;-73
2022/07/05 01:38:20;;;;;;;1.87;1.73;;;;;;;17.27;70.94;100976.03;5055735;28;20228;-73
2022/07/05 01:40:51;;;;;;;2.17;1.70;;;;;;;17.26;70.90;100963.72;5055509;28;20744;-73
2022/07/05 01:43:18;;;;;;;2.23;1.60;;;;;;;17.25;70.76;100959.38;5055753;28;20223;-73
2022/07/05 01:45:46;;;;;;;2.63;1.70;;;;;;;17.24;70.76;100960.28;5055729;28;20259;-72
2022/07/05 01:48:14;;;;;;;2.53;1.47;;;;;;;17.26;70.85;100961.97;5045441;28;20298;-73
2022/07/05 01:50:45;;;;;;;2.03;1.70;;;;;;;17.20;71.30;100953.41;5035519;28;20643;-73
2022/07/05 01:53:18;;;;;;;3.03;1.90;;;;;;;17.23;71.08;100963.88;5035615;28;20204;-73
2022/07/05 01:55:45;;;;;;;3.43;1.37;;;;;;;17.26;70.72;100964.63;5035686;28;20721;-73
2022/07/05 01:58:13;;;;;;;1.80;1.70;;;;;;;17.30;70.65;100969.75;5035378;28;20229;-73
2022/07/05 02:00:45;;;;;;;1.90;1.80;;;;;;;17.33;70.41;100981.06;5035212;28;20213;-72
2022/07/05 02:03:12;;;;;;;4.33;1.87;;;;;;;17.31;70.47;100988.19;5035584;28;20210;-73
2022/07/05 02:05:39;;;;;;;1.77;1.67;;;;;;;17.30;70.76;100977.66;5035227;28;20359;-72
2022/07/05 02:08:06;;;;;;;2.40;1.63;;;;;;;17.27;70.66;100983.94;5034629;28;20661;-72
2022/07/05 02:10:32;;;;;;;2.10;1.80;;;;;;;17.27;70.64;100989.22;5035332;28;20267;-72
2022/07/05 02:12:59;;;;;;;1.97;1.70;;;;;;;17.17;70.78;100985.22;5035117;28;20559;-72
2022/07/05 02:15:26;;;;;;;2.53;1.60;;;;;;;17.04;71.27;100969.81;5034949;28;20229;-72
2022/07/05 02:17:53;;;;;;;2.80;1.70;;;;;;;17.00;71.58;100957.66;5044973;28;20229;-72
2022/07/05 02:20:19;;;;;;;2.83;1.70;;;;;;;17.00;71.64;100955.03;5053182;28;20260;-73
2022/07/05 02:22:46;;;;;;;3.00;2.13;;;;;;;16.90;72.71;100940.47;5054826;28;20265;-72
2022/07/05 02:25:12;;;;;;;4.07;1.60;;;;;;;16.89;71.97;100941.41;5054784;28;20765;-72
2022/07/05 02:27:39;;;;;;;2.43;1.80;;;;;;;16.84;72.06;100951.25;5054824;28;20358;-73
2022/07/05 02:30:07;;;;;;;2.07;1.97;;;;;;;16.77;72.49;100932.13;5054587;28;20213;-72
2022/07/05 02:32:36;;;;;;;2.63;2.00;;;;;;;16.82;71.74;100939.91;5054716;28;20212;-72
2022/07/05 02:35:03;;;;;;;3.53;2.30;;;;;;;16.74;72.38;100937.50;5054751;28;20231;-72
2022/07/05 02:37:30;;;;;;;1.70;1.57;;;;;;;16.68;72.89;100928.03;5054559;28;20264;-73
2022/07/05 02:39:56;;;;;;;2.63;2.10;;;;;;;16.72;72.67;100920.03;5054477;28;20534;-72
2022/07/05 02:42:23;;;;;;;3.60;2.10;;;;;;;16.73;72.93;100911.19;5054470;28;20208;-72
2022/07/05 02:44:49;;;;;;;3.63;3.10;;;;;;;16.65;73.38;100909.72;5054293;28;20263;-72
2022/07/05 02:47:16;;;;;;;3.50;2.30;;;;;;;16.64;73.42;100913.25;5052654;28;20236;-73
2022/07/05 02:49:44;;;;;;;4.03;2.10;;;;;;;16.51;74.78;100895.31;5047700;28;20246;-73
2022/07/05 02:52:10;;;;;;;2.07;1.90;;;;;;;16.53;74.49;100875.03;5054353;28;20205;-73
2022/07/05 02:54:37;;;;;;;2.20;1.90;;;;;;;16.61;73.94;100887.03;5054544;28;20283;-73
2022/07/05 02:57:04;;;;;;;3.30;2.10;;;;;;;16.56;74.27;100888.09;5054800;28;20302;-72
2022/07/05 02:59:31;;;;;;;2.57;2.20;;;;;;;16.52;74.30;100894.41;5053774;28;20691;-73
2022/07/05 03:01:57;;;;;;;3.43;2.20;;;;;;;16.54;74.10;100893.44;5054097;28;20693;-72
2022/07/05 03:04:24;;;;;;;4.57;1.90;;;;;;;16.50;74.04;100909.41;5054405;28;20238;-72
2022/07/05 03:06:52;;;;;;;1.90;1.80;;;;;;;16.56;73.64;100902.13;5054157;28;20209;-72
2022/07/05 03:09:18;;;;;;;2.53;2.30;;;;;;;16.59;73.27;100931.03;5053671;28;20212;-72
2022/07/05 03:11:44;;;;;;;2.47;2.00;;;;;;;16.60;73.39;100932.72;5053756;28;20209;-72
2022/07/05 03:14:11;;;;;;;2.67;1.90;;;;;;;16.54;73.81;100932.09;5053875;28;20275;-72
2022/07/05 03:16:38;;;;;;;3.10;2.40;;;;;;;15.78;76.39;100891.72;5053799;28;20294;-72
2022/07/05 03:19:04;;;;;;;3.40;2.30;;;;;;;15.60;78.50;100808.91;5045279;28;20546;-73
2022/07/05 03:21:31;;;;;;;3.07;2.00;;;;;;;15.82;79.74;100753.81;5054033;28;20208;-73
2022/07/05 03:23:59;;;;;;;2.80;2.00;;;;;;;16.01;78.66;100761.88;5053737;28;20624;-73
2022/07/05 03:26:25;;;;;;;5.03;2.20;;;;;;;16.02;76.90;100795.22;5053832;28;20209;-73
2022/07/05 03:28:51;;;;;;;4.53;2.40;;;;;;;15.63;77.78;100808.81;5053810;28;20258;-72
2022/07/05 03:31:18;;;;;;;2.47;2.10;;;;;;;15.35;79.57;100779.94;5053381;28;20234;-73
2022/07/05 03:33:45;;;;;;;2.17;2.07;;;;;;;15.19;80.69;100737.50;5053827;28;20266;-72
2022/07/05 03:36:11;;;;;;;3.13;2.47;;;;;;;15.04;81.59;100716.09;5053313;28;20767;-73
2022/07/05 03:38:38;;;;;;;3.40;2.73;;;;;;;14.82;83.02;100680.88;5052897;28;20231;-73
2022/07/05 03:41:06;;;;;;;3.07;2.87;;;;;;;14.50;84.22;100648.59;5053393;28;20208;-72
2022/07/05 03:43:32;;;;;;;3.30;3.00;;;;;;;14.33;85.15;100624.63;5053600;28;20264;-73
2022/07/05 03:45:59;;;;;;;3.97;3.60;;;;;;;14.25;85.52;100616.97;5053520;28;20275;-72
2022/07/05 03:48:25;;;;;;;3.23;3.03;;;;;;;14.07;85.73;100615.78;5044673;28;20291;-72
2022/07/05 03:50:52;;;;;;;4.20;3.80;;;;;;;13.86;85.95;100618.16;5053468;28;20202;-72
2022/07/05 03:53:19;;;;;;;4.63;4.10;;;;;;;13.81;86.22;100614.81;5052651;28;20211;-72
2022/07/05 03:55:45;;;;;;;3.13;2.93;;;;;;;13.76;86.92;100613.25;5053284;28;20277;-73
2022/07/05 03:58:13;;;;;;;4.23;3.83;;;;;;;13.68;87.44;100621.34;5052817;28;20236;-74
2022/07/05 04:00:39;;;;;;;4.33;3.93;;;;;;;13.68;87.60;100630.06;5052886;28;20211;-75
2022/07/05 04:03:06;;;;;;;5.07;4.73;;;;;;;13.62;88.76;100604.00;5053090;28;20213;-73
2022/07/05 04:05:32;;;;;;;4.70;4.40;;;;;;;13.60;89.48;100583.97;5052776;28;20755;-73
2022/07/05 04:07:58;;;;;;;3.97;3.70;;;;;;;13.78;88.83;100586.06;5052572;28;20616;-73
2022/07/05 04:10:25;;;;;;;4.60;3.70;;;;;;;13.85;87.65;100620.81;5053050;28;20211;-73
2022/07/05 04:12:52;;;;;;;3.90;3.57;;;;;;;13.82;88.42;100626.19;5053106;28;20205;-73
2022/07/05 04:15:20;;;;;;;4.13;3.80;;;;;;;13.67;88.95;100635.34;5052754;28;20280;-73
2022/07/05 04:17:47;;;;;;;4.17;3.77;;;;;;;13.72;89.10;100628.22;5046510;28;20228;-73
2022/07/05 04:20:14;;;;;;;4.13;3.83;;;;;;;13.81;89.04;100638.41;5050354;28;20369;-73
2022/07/05 04:22:40;;;;;;;4.40;4.00;;;;;;;13.91;88.46;100657.38;5052646;28;20696;-73
2022/07/05 04:25:19;;;;;;;4.30;4.00;;;;;;;14.03;88.26;100666.66;5052775;28;20254;-72
2022/07/05 04:27:46;;;;;;;4.37;4.07;;;;;;;14.08;88.00;100684.00;5052174;28;20639;-73
2022/07/05 04:30:13;;;;;;;4.97;4.10;;;;;;;14.09;88.27;100692.72;5052334;28;20298;-73
2022/07/05 04:32:41;;;;;;;3.83;3.53;;;;;;;14.15;87.82;100695.16;5052381;28;20196;-73
2022/07/05 04:35:08;;;;;;;3.43;3.13;;;;;;;14.28;87.54;100695.69;5052729;28;20281;-73
2022/07/05 04:37:35;;;;;;;3.50;3.30;;;;;;;14.44;87.43;100698.69;5052209;28;20226;-73
2022/07/05 04:40:02;;;;;;;3.10;2.80;;;;;;;14.67;86.57;100716.41;5052327;28;20207;-73
2022/07/05 04:42:28;;;;;;;4.33;4.03;;;;;;;14.61;85.43;100769.16;5052540;28;20207;-73
2022/07/05 04:44:54;;;;;;;5.80;3.90;;;;;;;14.44;86.49;100764.34;5052347;28;20265;-73
2022/07/05 04:47:21;;;;;;;4.30;3.93;;;;;;;14.43;86.88;100753.00;5046642;28;20219;-73
2022/07/05 04:49:49;;;;;;;4.13;3.83;;;;;;;14.43;87.09;100744.22;5042850;28;20246;-73
2022/07/05 04:52:15;;;;;;;5.20;3.93;;;;;;;14.53;87.02;100731.69;5041300;28;20207;-73
2022/07/05 04:54:41;;;;;;;3.87;3.57;;;;;;;14.62;86.68;100739.31;5041203;28;20196;-73
2022/07/05 04:57:08;;;;;;;3.97;3.67;;;;;;;14.95;86.71;100739.19;5041978;28;20223;-73
2022/07/05 04:59:35;;;;;;;3.93;3.27;;;;;;;14.97;85.11;100788.16;5040801;28;20215;-72
2022/07/05 05:02:01;;;;;;;18.83;4.00;;;;;;;14.80;85.55;100796.56;5041300;28;20235;-74
2022/07/05 05:04:28;;;;;;;5.37;3.70;;;;;;;14.77;86.10;100788.78;5042280;28;20207;-73
2022/07/05 05:06:56;;;;;;;3.17;2.60;;;;;;;14.98;86.32;100781.13;5040922;28;20717;-73
2022/07/05 05:09:22;;;;;;;4.57;4.17;;;;;;;15.08;84.96;100804.47;5041682;28;20569;-73
2022/07/05 05:11:49;;;;;;;5.50;3.00;;;;;;;15.23;85.40;100805.72;5040205;28;20200;-74
2022/07/05 05:14:15;;;;;;;6.77;4.37;;;;;;;15.14;86.02;100806.00;5041941;28;20211;-73
2022/07/05 05:16:42;;;;;;;3.63;3.33;;;;;;;15.17;86.11;100795.41;5042124;28;20220;-72
2022/07/05 05:19:08;;;;;;;3.60;3.20;;;;;;;15.18;85.59;100804.16;5044587;28;20239;-73
2022/07/05 05:21:35;;;;;;;4.13;3.73;;;;;;;15.15;85.64;100806.91;5040698;28;20252;-73
2022/07/05 05:24:02;;;;;;;4.70;4.30;;;;;;;15.07;86.21;100805.34;5040897;28;20207;-73
2022/07/05 05:26:29;;;;;;;5.50;4.13;;;;;;;15.14;86.41;100808.66;5039267;28;20212;-73
2022/07/05 05:28:55;;;;;;;4.20;3.80;;;;;;;15.20;86.39;100802.34;5040336;28;20279;-73
2022/07/05 05:31:22;;;;;;;7.80;4.43;;;;;;;15.20;86.11;100795.31;5040349;28;20635;-74
2022/07/05 05:33:48;;;;;;;6.30;4.37;;;;;;;15.24;85.95;100812.72;5042053;28;20277;-73
2022/07/05 05:36:15;;;;;;;4.50;4.10;;;;;;;15.36;86.25;100798.31;5040774;28;20227;-73
2022/07/05 05:38:41;;;;;;;3.90;3.60;;;;;;;15.53;86.36;100803.00;5040667;28;20219;-73
2022/07/05 05:41:09;;;;;;;3.97;3.60;;;;;;;15.51;85.72;100831.13;5041531;28;20256;-72
2022/07/05 05:43:36;;;;;;;5.77;3.47;;;;;;;15.58;85.73;100826.50;5040737;28;20254;-73
2022/07/05 05:46:03;;;;;;;4.07;3.77;;;;;;;15.65;85.15;100854.34;5042693;28;20316;-73
2022/07/05 05:48:30;;;;;;;4.13;3.77;;;;;;;15.74;84.88;100864.63;5044189;28;20220;-73
2022/07/05 05:50:56;;;;;;;6.53;3.87;;;;;;;15.75;85.62;100855.78;5040861;28;20198;-73
2022/07/05 05:53:24;;;;;;;3.63;3.30;;;;;;;15.75;86.04;100844.41;5042745;28;20225;-73
2022/07/05 05:55:51;;;;;;;5.70;3.53;;;;;;;15.93;85.60;100835.88;5037093;28;20271;-73
2022/07/05 05:58:21;;;;;;;5.97;3.70;;;;;;;16.08;83.70;100869.59;5040737;28;20697;-73
2022/07/05 06:00:50;;;;;;;4.10;3.80;;;;;;;16.09;83.21;100917.84;5041844;28;20208;-73
2022/07/05 06:03:17;;;;;;;4.50;4.10;;;;;;;15.95;84.88;100897.25;5040871;28;20197;-73
2022/07/05 06:05:44;;;;;;;5.77;4.10;;;;;;;16.08;84.73;100874.84;5039883;28;20197;-73
2022/07/05 06:08:11;;;;;;;5.27;3.63;;;;;;;16.26;83.68;100907.59;5039839;28;20687;-73
2022/07/05 06:10:38;;;;;;;6.83;4.17;;;;;;;16.28;82.81;100940.00;5043498;28;20296;-74
2022/07/05 06:13:06;;;;;;;5.80;3.50;;;;;;;16.39;83.39;100937.00;5041887;28;20231;-74
2022/07/05 06:15:35;;;;;;;5.07;3.83;;;;;;;16.40;83.34;100937.88;5037452;28;20613;-73
2022/07/05 06:18:02;;;;;;;4.97;3.93;;;;;;;16.57;83.56;100926.69;5047318;28;20720;-73
2022/07/05 06:20:30;;;;;;;6.17;3.73;;;;;;;16.66;81.76;100965.91;5045730;28;20207;-73
2022/07/05 06:22:57;;;;;;;4.30;3.40;;;;;;;16.68;81.53;100990.44;5043349;28;20656;-73
2022/07/05 06:25:24;;;;;;;6.30;3.97;;;;;;;16.73;80.75;101020.16;5044014;28;20200;-73
2022/07/05 06:27:52;;;;;;;3.83;3.53;;;;;;;16.86;80.43;101041.69;5040477;28;20225;-72
2022/07/05 06:30:22;;;;;;;5.37;3.40;;;;;;;17.01;80.09;101048.22;5044297;28;20201;-73
2022/07/05 06:32:50;;;;;;;3.57;3.23;;;;;;;16.96;79.49;101060.69;5044939;28;20669;-72
2022/07/05 06:35:17;;;;;;;3.73;3.43;;;;;;;17.01;79.64;101066.69;5043741;28;20720;-73
2022/07/05 06:37:46;;;;;;;6.00;3.37;;;;;;;17.14;79.18;101067.94;5035170;28;20232;-73
2022/07/05 06:40:17;;;;;;;4.10;3.10;;;;;;;17.29;79.33;101066.53;5034823;28;20212;-73
2022/07/05 06:42:44;;;;;;;3.90;3.60;;;;;;;17.24;79.36;101073.75;5034428;28;20210;-73
2022/07/05 06:45:11;;;;;;;3.63;2.80;;;;;;;17.38;78.56;101089.06;5034265;28;20618;-76
2022/07/05 06:47:37;;;;;;;4.43;3.40;;;;;;;17.34;77.91;101120.00;5044576;28;20254;-73
2022/07/05 06:50:06;;;;;;;3.70;2.80;;;;;;;17.45;76.51;101152.16;5050882;28;20254;-73
2022/07/05 06:52:33;;;;;;;4.60;3.03;;;;;;;17.20;77.33;101160.06;5054237;28;20208;-73
2022/07/05 06:55:00;;;;;;;5.93;4.10;;;;;;;17.25;77.60;101133.53;5054296;28;20200;-74
2022/07/05 06:57:27;;;;;;;3.87;2.90;;;;;;;17.31;77.28;101140.38;5053849;28;20236;-74
2022/07/05 06:59:53;;;;;;;4.20;2.63;;;;;;;17.45;76.04;101173.25;5053771;28;20204;-73
2022/07/05 07:02:20;;;;;;;2.47;2.27;;;;;;;17.49;74.41;101218.03;5054391;28;20208;-73
2022/07/05 07:04:46;;;;;;;2.87;2.57;;;;;;;17.62;73.61;101240.41;5053776;28;20235;-73
2022/07/05 07:09:57;;;;;;;5.00;2.23;;;;;;;17.62;73.13;101266.81;5052943;28;20295;-73
2022/07/05 07:12:23;;;;;;;4.60;2.40;;;;;;;17.73;73.56;101255.91;5053981;28;20681;-74
2022/07/05 07:14:50;;;;;;;2.60;1.80;;;;;;;17.78;71.32;101312.03;5053505;28;20216;-74
2022/07/05 07:17:16;;;;;;;5.20;1.73;;;;;;;17.90;68.75;101382.09;5051575;28;20229;-74
2022/07/05 07:19:43;;;;;;;3.97;1.90;;;;;;;18.00;67.85;101425.81;5047703;28;20202;-74
2022/07/05 07:22:09;;;;;;;2.70;1.80;;;;;;;18.06;66.27;101457.31;5053676;28;20208;-73
2022/07/05 07:24:37;;;;;;;2.83;1.70;;;;;;;18.21;65.34;101490.25;5053662;28;20219;-73
2022/07/05 07:27:04;;;;;;;2.20;1.77;;;;;;;18.24;65.31;101521.88;5053627;28;20221;-73
2022/07/05 07:29:31;;;;;;;3.70;1.67;;;;;;;18.34;65.22;101517.16;5052392;28;20556;-73
2022/07/05 07:31:59;;;;;;;2.17;1.50;;;;;;;18.45;65.42;101517.63;5053431;28;20220;-74
2022/07/05 07:34:26;;;;;;;3.13;1.73;;;;;;;18.60;65.25;101518.88;5053584;28;20239;-73
2022/07/05 07:36:52;;;;;;;3.37;1.70;;;;;;;18.61;64.85;101521.47;5053124;28;20285;-73
2022/07/05 07:39:19;;;;;;;2.00;1.30;;;;;;;18.67;61.95;101544.19;5053807;28;20213;-73
2022/07/05 07:41:47;;;;;;;2.67;1.47;;;;;;;18.71;59.90;101669.25;5053595;28;20209;-74
2022/07/05 07:44:14;;;;;;;1.50;1.17;;;;;;;18.60;58.65;101715.44;5053283;28;20697;-75
2022/07/05 07:46:41;;;;;;;1.60;1.20;;;;;;;18.57;57.89;101709.38;5053407;28;20204;-74
2022/07/05 07:49:08;;;;;;;2.43;1.30;;;;;;;18.75;58.88;101715.84;5044619;28;20205;-74
2022/07/05 07:51:34;;;;;;;2.43;1.30;;;;;;;18.77;55.67;101737.81;5053070;28;20832;-74
2022/07/05 07:54:01;;;;;;;1.20;1.10;;;;;;;18.96;56.66;101767.25;5053082;28;20204;-74
2022/07/05 07:56:28;;;;;;;2.30;1.20;;;;;;;18.93;57.93;101748.81;5046633;28;20271;-73
2022/07/05 07:58:56;;;;;;;0.97;0.90;;;;;;;19.09;57.20;101730.63;5041136;28;20721;-74
2022/07/05 08:01:23;;;;;;;2.40;1.00;;;;;;;19.28;56.37;101731.75;5041696;28;20205;-74
2022/07/05 08:03:50;;;;;;;1.77;1.50;;;;;;;19.12;55.47;101778.19;5043191;28;20255;-74
2022/07/05 08:06:17;;;;;;;1.67;1.00;;;;;;;19.22;55.81;101783.13;5042797;28;20197;-73
2022/07/05 08:08:45;;;;;;;1.60;1.10;;;;;;;19.14;55.77;101779.88;5041102;28;20275;-73
2022/07/05 08:11:13;;;;;;;3.03;1.27;;;;;;;19.29;55.67;101762.63;5042966;28;20209;-73
2022/07/05 08:13:40;;;;;;;1.83;1.20;;;;;;;19.23;56.03;101779.56;5040933;28;20206;-73
2022/07/05 08:16:09;;;;;;;3.13;1.27;;;;;;;19.12;56.37;101755.22;5040557;28;20209;-73
2022/07/05 08:21:32;;;;;;;1.27;1.17;;;;;;;19.20;55.29;101757.63;5042380;28;20209;-72
2022/07/05 08:24:00;;;;;;;1.10;1.07;;;;;;;19.24;54.92;101754.81;5042753;28;20205;-73
2022/07/05 08:26:26;;;;;;;1.43;1.20;;;;;;;19.16;55.86;101764.78;5038732;28;20292;-74
2022/07/05 08:28:53;;;;;;;1.90;1.20;;;;;;;19.21;55.12;101754.06;5041620;28;20266;-74
2022/07/05 08:31:21;;;;;;;1.40;1.10;;;;;;;19.29;54.64;101761.75;5042493;28;20217;-74
2022/07/05 08:33:48;;;;;;;1.50;1.40;;;;;;;19.31;54.30;101774.00;5038848;28;20664;-74
2022/07/05 08:36:14;;;;;;;1.53;1.43;;;;;;;19.46;54.54;101793.78;5041755;28;20663;-74
2022/07/05 08:38:41;;;;;;;2.50;1.20;;;;;;;19.66;54.21;101779.84;5042269;28;20233;-74
2022/07/05 08:41:09;;;;;;;0.90;0.90;;;;;;;19.72;52.04;101769.09;5040899;28;20218;-74
2022/07/05 08:43:37;;;;;;;1.20;1.10;;;;;;;19.85;52.67;101819.84;5040262;28;20207;-74
2022/07/05 08:46:08;;;;;;;3.50;1.30;;;;;;;19.61;53.25;101821.56;5042517;28;20201;-75
2022/07/05 08:48:41;;;;;;;1.27;1.13;;;;;;;19.71;52.69;101824.75;5045661;28;20713;-74
2022/07/05 08:51:11;;;;;;;1.60;1.07;;;;;;;19.86;50.41;101829.56;5039002;28;20198;-74
2022/07/05 08:53:38;;;;;;;1.03;1.00;;;;;;;19.88;50.23;101875.41;5040415;28;20247;-74
2022/07/05 08:56:06;;;;;;;1.77;1.10;;;;;;;19.91;50.04;101887.69;5042405;28;20671;-74
2022/07/05 08:58:33;;;;;;;1.40;1.30;;;;;;;20.11;50.85;101882.53;5045393;28;20222;-74
2022/07/05 09:01:00;;;;;;;1.23;1.13;;;;;;;20.31;51.52;101859.72;5043828;28;20260;-74
2022/07/05 09:03:32;;;;;;;1.30;1.20;;;;;;;20.41;51.08;101861.13;5040266;28;20206;-74
2022/07/05 09:06:01;;;;;;;1.47;1.10;;;;;;;20.54;50.47;101862.41;5041151;28;20612;-75
2022/07/05 09:08:32;;;;;;;1.73;1.00;;;;;;;20.59;49.60;101872.84;5037846;28;20231;-74
2022/07/05 09:11:00;;;;;;;1.27;1.17;;;;;;;20.43;49.25;101881.38;5040953;28;20197;-74
2022/07/05 09:13:26;;;;;;;1.47;1.10;;;;;;;20.51;49.12;101894.31;5040309;28;20198;-74
2022/07/05 09:15:54;;;;;;;1.27;0.93;;;;;;;20.63;48.81;101890.38;5042295;28;20617;-74
2022/07/05 09:18:39;;;;;;;0.90;0.90;;;;;;;20.42;48.01;101910.59;5045213;28;20269;-73
2022/07/05 09:21:14;;;;;;;1.43;1.07;;;;;;;20.45;47.65;101907.81;5042576;28;20193;-74
2022/07/05 09:23:42;;;;;;;4.77;0.97;;;;;;;20.41;47.89;101935.38;5037163;28;20202;-74
2022/07/05 09:26:08;;;;;;;1.40;1.30;;;;;;;20.31;47.99;101953.41;5037952;28;20198;-74
2022/07/05 09:28:35;;;;;;;1.93;0.87;;;;;;;20.42;48.59;101939.78;5041100;28;20230;-74
2022/07/05 09:31:01;;;;;;;1.40;1.00;;;;;;;20.32;47.60;101938.38;5042143;28;20213;-74
2022/07/05 09:33:28;;;;;;;1.23;1.00;;;;;;;20.34;46.12;101944.50;5037940;28;20210;-74
2022/07/05 09:35:57;;;;;;;2.00;1.00;;;;;;;20.40;45.89;101969.00;5041124;28;20198;-75
2022/07/05 09:38:26;;;;;;;2.20;1.10;;;;;;;20.47;45.31;101985.56;5041990;28;20302;-74
2022/07/05 09:40:54;;;;;;;1.10;1.00;;;;;;;20.34;44.77;101994.91;5040772;28;20274;-74
2022/07/05 09:43:22;;;;;;;0.90;0.90;;;;;;;20.50;45.52;101998.72;5040227;28;20206;-74
2022/07/05 09:45:54;;;;;;;0.77;0.73;;;;;;;20.34;45.76;101977.19;5037475;28;20199;-74
2022/07/05 09:48:21;;;;;;;1.27;0.90;;;;;;;20.51;45.81;101960.66;5045168;28;20264;-74
2022/07/05 09:50:49;;;;;;;0.80;0.80;;;;;;;20.53;45.14;101961.47;5042664;28;20252;-74
2022/07/05 09:53:16;;;;;;;1.23;0.80;;;;;;;20.75;45.38;101987.25;5044501;28;20272;-74
2022/07/05 09:56:00;;;;;;;2.50;1.07;;;;;;;20.81;45.06;101971.97;5046075;28;20263;-74
2022/07/05 09:58:27;;;;;;;1.70;0.90;;;;;;;21.02;45.26;101993.31;5046088;28;20287;-74
2022/07/05 10:00:54;;;;;;;0.93;0.93;;;;;;;20.93;43.55;101993.66;5044830;28;20192;-74
2022/07/05 10:03:20;;;;;;;2.87;1.20;;;;;;;21.01;45.10;102013.69;5044189;28;20205;-74
2022/07/05 10:05:47;;;;;;;0.80;0.80;;;;;;;20.80;44.76;102006.53;5046241;28;20251;-75
2022/07/05 10:08:13;;;;;;;0.80;0.80;;;;;;;20.93;45.62;101999.84;5043783;28;20222;-76
2022/07/05 10:10:44;;;;;;;1.40;0.97;;;;;;;20.92;45.35;101973.34;5043812;28;20604;-75
2022/07/05 10:13:10;;;;;;;0.87;0.87;;;;;;;21.17;44.65;101974.16;5042057;28;20236;-75
2022/07/05 10:15:37;;;;;;;0.70;0.70;;;;;;;21.22;43.74;102006.69;5044486;28;20205;-76
2022/07/05 10:18:07;;;;;;;0.73;0.70;;;;;;;20.87;43.22;102008.06;5047811;28;20283;-75
2022/07/05 10:20:40;;;;;;;1.37;0.90;;;;;;;20.58;44.06;102023.19;5046530;28;20202;-76
2022/07/05 10:23:08;;;;;;;0.97;0.70;;;;;;;20.75;44.70;102001.41;5043412;28;20252;-76
2022/07/05 10:25:36;;;;;;;0.90;0.90;;;;;;;20.85;43.82;101988.63;5044649;28;20201;-75
2022/07/05 10:28:05;;;;;;;1.10;0.83;;;;;;;21.12;43.24;101991.19;5044954;28;20280;-75
2022/07/05 10:30:33;;;;;;;0.80;0.80;;;;;;;21.08;42.46;101994.88;5043023;28;20217;-76
2022/07/05 10:33:01;;;;;;;1.13;0.80;;;;;;;20.93;42.21;102041.44;5044789;28;20202;-77
2022/07/05 10:35:28;;;;;;;1.27;0.90;;;;;;;21.10;43.37;102047.00;5044862;28;20206;-76
2022/07/05 10:37:55;;;;;;;1.40;1.00;;;;;;;21.13;41.20;101999.09;5043987;28;20280;-76
2022/07/05 10:40:21;;;;;;;1.00;1.00;;;;;;;21.08;41.17;102046.19;5043075;28;20197;-75
2022/07/05 10:42:52;;;;;;;1.90;0.90;;;;;;;20.77;42.20;102071.22;5040684;28;20280;-75
2022/07/05 10:45:31;;;;;;;0.77;0.77;;;;;;;21.05;42.43;102037.47;5047847;28;20194;-79
2022/07/05 10:48:18;;;;;;;1.30;0.80;;;;;;;21.10;41.20;102038.19;5047544;28;20221;-81
2022/07/05 10:50:47;;;;;;;0.70;0.70;;;;;;;21.17;41.96;102058.28;5046596;28;20212;-77
2022/07/05 10:53:14;;;;;;;0.80;0.80;;;;;;;21.21;40.85;102046.63;5043969;28;20255;-77
2022/07/05 10:55:55;;;;;;;1.00;0.87;;;;;;;21.57;41.21;102060.28;5042710;28;20667;-76
2022/07/05 10:58:27;;;;;;;1.03;0.80;;;;;;;21.68;41.26;102051.03;5043890;28;20718;-76
2022/07/05 11:01:36;;;;;;;1.20;0.80;;;;;;;21.80;41.09;102054.06;5043889;28;20204;-77
2022/07/05 11:04:18;;;;;;;1.20;0.87;;;;;;;21.64;41.00;102044.09;5037688;28;20217;-76
2022/07/05 11:06:46;;;;;;;1.30;0.90;;;;;;;21.52;41.37;102045.44;5044316;28;20198;-78
2022/07/05 11:09:16;;;;;;;1.17;0.97;;;;;;;21.45;41.71;102041.28;5044099;28;20711;-78
2022/07/05 11:11:44;;;;;;;0.80;0.77;;;;;;;21.56;41.21;102028.47;5045244;28;20224;-76
2022/07/05 11:14:38;;;;;;;2.30;0.83;;;;;;;21.64;40.48;102021.03;5043305;28;20202;-77
2022/07/05 11:17:22;;;;;;;1.53;0.77;;;;;;;21.37;40.40;102037.13;5046652;28;20218;-77
2022/07/05 11:20:19;;;;;;;0.73;0.73;;;;;;;21.61;41.34;102047.75;5043056;28;20670;-76
2022/07/05 11:23:11;;;;;;;0.80;0.67;;;;;;;21.88;39.17;102013.84;5044171;28;20634;-77
2022/07/05 11:25:40;;;;;;;2.20;0.90;;;;;;;22.16;39.11;102064.13;5042697;28;20217;-78
2022/07/05 11:28:24;;;;;;;0.70;0.70;;;;;;;22.25;37.56;102046.94;5039673;28;20226;-77
2022/07/05 11:30:52;;;;;;;0.80;0.80;;;;;;;22.29;37.42;102194.84;5038122;28;20260;-79
2022/07/05 11:33:38;;;;;;;0.70;0.70;;;;;;;22.38;37.46;102205.16;5042978;28;20193;-78